createdAt,value
2022-12-06T00:01:11.969Z,15.25
2022-12-06T00:03:40.103Z,12.07
2022-12-06T00:06:09.944Z,15.82
2022-12-06T00:08:38.159Z,14.23
2022-12-06T00:11:22.685Z,13.93
2022-12-06T00:13:56.946Z,12.18
2022-12-06T00:16:25.046Z,13.00
2022-12-06T00:18:51.701Z,13.55
2022-12-06T00:21:23.095Z,12.35
2022-12-06T00:23:55.124Z,13.00
2022-12-06T00:26:22.159Z,11.52
2022-12-06T00:28:51.823Z,14.32
2022-12-06T00:31:20.415Z,11.35
2022-12-06T00:33:47.642Z,10.88
2022-12-06T00:36:17.547Z,12.88
2022-12-06T00:38:44.300Z,12.52
2022-12-06T00:41:17.428Z,8.35
2022-12-06T00:43:44.492Z,8.85
2022-12-06T00:46:15.639Z,9.40
2022-12-06T00:48:42.329Z,8.57
2022-12-06T00:51:09.009Z,9.82
2022-12-06T00:53:35.752Z,8.32
2022-12-06T00:56:02.331Z,9.07
2022-12-06T00:58:28.913Z,8.77
2022-12-06T01:00:55.576Z,8.45
2022-12-06T01:03:22.364Z,7.85
2022-12-06T01:05:51.156Z,7.38
2022-12-06T01:08:19.040Z,6.57
2022-12-06T01:10:55.046Z,5.13
2022-12-06T01:13:21.586Z,5.07
2022-12-06T01:15:48.108Z,4.97
2022-12-06T01:18:14.678Z,5.93
2022-12-06T01:20:41.247Z,5.72
2022-12-06T01:23:08.006Z,5.35
2022-12-06T01:25:36.461Z,5.95
2022-12-06T01:28:03.750Z,5.22
2022-12-06T01:30:30.680Z,5.95
2022-12-06T01:32:57.327Z,6.07
2022-12-06T01:35:23.851Z,6.80
2022-12-06T01:37:50.392Z,6.20
2022-12-06T01:40:16.975Z,6.40
2022-12-06T01:42:43.546Z,7.90
2022-12-06T01:45:10.538Z,6.72
2022-12-06T01:47:43.162Z,6.38
2022-12-06T01:50:32.660Z,6.97
2022-12-06T01:53:08.053Z,8.60
2022-12-06T01:55:38.845Z,7.45
2022-12-06T01:58:12.757Z,7.85
2022-12-06T02:00:39.282Z,6.88
2022-12-06T02:03:12.485Z,7.68
2022-12-06T02:05:40.878Z,8.25
2022-12-06T02:08:09.928Z,6.65
2022-12-06T02:10:37.044Z,7.57
2022-12-06T02:13:04.446Z,8.05
2022-12-06T02:16:13.017Z,7.90
2022-12-06T02:18:56.387Z,8.13
2022-12-06T02:21:49.795Z,9.60
2022-12-06T02:24:37.975Z,7.70
2022-12-06T02:27:42.153Z,10.10
2022-12-06T02:30:18.203Z,8.13
2022-12-06T02:32:57.373Z,8.75
2022-12-06T02:35:33.016Z,9.60
2022-12-06T02:38:25.196Z,9.15
2022-12-06T02:40:58.890Z,9.23
2022-12-06T02:43:32.518Z,10.38
2022-12-06T02:46:02.960Z,10.35
2022-12-06T02:48:32.842Z,10.02
2022-12-06T02:51:03.213Z,11.33
2022-12-06T02:53:32.972Z,10.43
2022-12-06T02:55:59.929Z,9.80
2022-12-06T02:58:27.806Z,11.70
2022-12-06T03:01:01.644Z,9.85
2022-12-06T03:03:36.283Z,11.73
2022-12-06T03:06:02.855Z,12.80
2022-12-06T03:08:50.799Z,9.95
2022-12-06T03:11:18.331Z,10.68
2022-12-06T03:14:07.979Z,12.23
2022-12-06T03:19:30.666Z,9.73
2022-12-06T03:22:35.593Z,10.27
2022-12-06T03:25:06.027Z,9.38
2022-12-06T03:27:34.496Z,11.02
2022-12-06T03:30:05.332Z,9.52
2022-12-06T03:32:34.627Z,8.60
2022-12-06T03:35:07.596Z,7.95
2022-12-06T03:37:38.836Z,9.05
2022-12-06T03:40:21.124Z,8.05
2022-12-06T03:42:49.456Z,10.15
2022-12-06T03:45:16.283Z,9.30
2022-12-06T03:47:55.161Z,9.65
2022-12-06T03:50:44.571Z,7.78
2022-12-06T03:53:11.180Z,8.68
2022-12-06T03:55:37.779Z,8.27
2022-12-06T03:58:04.557Z,8.82
2022-12-06T04:00:31.121Z,8.95
2022-12-06T04:02:57.654Z,9.90
2022-12-06T04:05:24.171Z,10.00
2022-12-06T04:07:50.956Z,9.68
2022-12-06T04:10:17.594Z,8.10
2022-12-06T04:13:02.341Z,8.80
2022-12-06T04:15:31.924Z,9.63
2022-12-06T04:18:15.847Z,9.10
2022-12-06T04:21:16.038Z,9.43
2022-12-06T04:23:45.789Z,9.63
2022-12-06T04:26:14.773Z,9.60
2022-12-06T04:29:00.382Z,9.60
2022-12-06T04:31:46.496Z,11.05
2022-12-06T04:34:32.051Z,11.18
2022-12-06T04:37:17.987Z,9.40
2022-12-06T04:39:44.803Z,8.88
2022-12-06T04:42:30.684Z,9.48
2022-12-06T04:44:57.358Z,8.63
2022-12-06T04:47:24.605Z,11.00
2022-12-06T04:49:51.687Z,12.05
2022-12-06T04:52:18.466Z,11.65
2022-12-06T04:54:45.423Z,9.15
2022-12-06T04:57:13.769Z,10.93
2022-12-06T04:59:42.574Z,10.30
2022-12-06T05:02:12.977Z,9.70
2022-12-06T05:04:40.029Z,9.90
2022-12-06T05:07:06.694Z,8.95
2022-12-06T05:09:33.395Z,9.52
2022-12-06T05:12:00.016Z,12.88
2022-12-06T05:14:26.593Z,9.80
2022-12-06T05:16:53.211Z,11.35
2022-12-06T05:19:19.835Z,9.82
2022-12-06T05:21:47.163Z,10.20
2022-12-06T05:24:14.338Z,10.38
2022-12-06T05:26:41.366Z,9.45
2022-12-06T05:29:08.173Z,8.52
2022-12-06T05:31:34.804Z,9.90
2022-12-06T05:34:01.519Z,9.65
2022-12-06T05:36:28.549Z,11.18
2022-12-06T05:38:56.469Z,9.85
2022-12-06T05:41:24.185Z,10.25
2022-12-06T05:43:50.863Z,10.07
2022-12-06T05:46:18.382Z,11.00
2022-12-06T05:48:45.214Z,9.80
2022-12-06T05:51:12.160Z,9.05
2022-12-06T05:53:39.381Z,8.73
2022-12-06T05:56:09.114Z,10.63
2022-12-06T05:58:36.553Z,8.40
2022-12-06T06:01:04.748Z,8.30
2022-12-06T06:03:31.352Z,8.27
2022-12-06T06:05:59.948Z,7.43
2022-12-06T06:08:27.629Z,7.95
2022-12-06T06:10:54.361Z,8.30
2022-12-06T06:13:21.009Z,7.68
2022-12-06T06:15:49.068Z,8.25
2022-12-06T06:18:16.641Z,8.55
2022-12-06T06:20:50.539Z,8.85
2022-12-06T06:23:17.382Z,9.43
2022-12-06T06:25:43.946Z,11.38
2022-12-06T06:28:10.479Z,8.13
2022-12-06T06:30:37.013Z,8.50
2022-12-06T06:33:03.654Z,8.05
2022-12-06T06:35:32.454Z,10.48
2022-12-06T06:37:59.415Z,8.05
2022-12-06T06:40:26.016Z,9.13
2022-12-06T06:42:52.618Z,8.57
2022-12-06T06:45:23.802Z,8.20
2022-12-06T06:47:53.366Z,8.43
2022-12-06T06:50:19.914Z,8.82
2022-12-06T06:52:46.504Z,10.68
2022-12-06T06:55:13.076Z,8.90
2022-12-06T06:57:41.297Z,8.82
2022-12-06T07:00:09.577Z,9.25
2022-12-06T07:02:39.552Z,9.57
2022-12-06T07:05:06.744Z,9.20
2022-12-06T07:07:33.371Z,10.43
2022-12-06T07:10:00.376Z,9.40
2022-12-06T07:12:27.128Z,11.18
2022-12-06T07:14:53.754Z,9.50
2022-12-06T07:17:20.267Z,9.15
2022-12-06T07:19:47.688Z,8.13
2022-12-06T07:22:14.190Z,7.47
2022-12-06T07:24:43.647Z,8.00
2022-12-06T07:27:12.219Z,7.80
2022-12-06T07:29:38.864Z,9.95
2022-12-06T07:32:05.580Z,6.03
2022-12-06T07:34:33.321Z,7.45
2022-12-06T07:36:59.900Z,7.05
2022-12-06T07:39:26.722Z,8.77
2022-12-06T07:42:11.696Z,6.78
2022-12-06T07:45:01.322Z,7.60
2022-12-06T07:47:39.616Z,6.45
2022-12-06T07:50:12.888Z,8.40
2022-12-06T07:52:43.376Z,8.75
2022-12-06T07:55:11.855Z,6.95
2022-12-06T07:57:43.370Z,7.70
2022-12-06T08:00:13.393Z,6.72
2022-12-06T08:02:40.200Z,9.35
2022-12-06T08:05:06.944Z,6.18
2022-12-06T08:07:33.813Z,6.78
2022-12-06T08:10:00.857Z,7.00
2022-12-06T08:12:32.048Z,6.15
2022-12-06T08:14:59.947Z,7.15
2022-12-06T08:17:27.545Z,8.93
2022-12-06T08:19:54.293Z,6.75
2022-12-06T08:22:21.014Z,7.35
2022-12-06T08:24:47.918Z,8.95
2022-12-06T08:27:14.560Z,7.13
2022-12-06T08:29:41.070Z,7.35
2022-12-06T08:32:07.618Z,7.05
2022-12-06T08:34:34.497Z,5.60
2022-12-06T08:37:03.531Z,6.28
2022-12-06T08:39:30.740Z,8.10
2022-12-06T08:42:02.274Z,6.55
2022-12-06T08:44:30.324Z,7.38
2022-12-06T08:46:58.003Z,8.25
2022-12-06T08:49:26.515Z,6.10
2022-12-06T08:51:53.621Z,9.02
2022-12-06T08:54:24.229Z,5.40
2022-12-06T08:59:18.180Z,6.30
2022-12-06T09:01:46.515Z,6.25
2022-12-06T09:04:14.803Z,8.00
2022-12-06T09:06:43.183Z,7.00
2022-12-06T09:09:10.905Z,5.03
2022-12-06T09:11:39.030Z,4.97
2022-12-06T09:14:07.415Z,4.63
2022-12-06T09:16:34.112Z,5.75
2022-12-06T09:19:00.954Z,4.50
2022-12-06T09:21:32.128Z,6.40
2022-12-06T09:23:59.274Z,5.22
2022-12-06T09:26:27.440Z,6.50
2022-12-06T09:28:55.633Z,4.45
2022-12-06T09:31:22.844Z,4.90
2022-12-06T09:33:49.707Z,4.32
2022-12-06T09:36:24.265Z,5.68
2022-12-06T09:39:20.354Z,5.03
2022-12-06T09:42:02.293Z,4.90
2022-12-06T09:45:06.715Z,5.15
2022-12-06T09:47:53.515Z,4.75
2022-12-06T09:50:32.568Z,5.47
2022-12-06T09:53:31.127Z,5.10
2022-12-06T09:56:09.791Z,4.85
2022-12-06T09:58:54.450Z,4.82
2022-12-06T10:01:50.344Z,6.53
2022-12-06T10:04:31.925Z,4.70
2022-12-06T10:07:08.816Z,7.00
2022-12-06T10:10:00.652Z,6.72
2022-12-06T10:12:47.351Z,6.20
2022-12-06T10:16:07.053Z,7.93
2022-12-06T10:18:49.962Z,6.78
2022-12-06T10:21:16.542Z,6.07
2022-12-06T10:23:51.925Z,5.57
2022-12-06T10:27:01.591Z,7.00
2022-12-06T10:29:52.970Z,6.82
2022-12-06T10:32:32.025Z,8.13
2022-12-06T10:35:07.877Z,8.90
2022-12-06T10:37:40.798Z,7.57
2022-12-06T10:40:25.012Z,6.25
2022-12-06T10:43:04.027Z,8.43
2022-12-06T10:46:23.149Z,6.53
2022-12-06T10:49:00.028Z,8.35
2022-12-06T10:51:39.869Z,6.03
2022-12-06T10:54:26.060Z,4.87
2022-12-06T10:56:56.582Z,6.43
2022-12-06T10:59:54.470Z,5.15
2022-12-06T11:02:45.934Z,7.18
2022-12-06T11:05:24.760Z,8.48
2022-12-06T11:07:59.345Z,7.63
2022-12-06T11:10:30.428Z,8.98
2022-12-06T11:13:18.697Z,6.90
2022-12-06T11:15:53.261Z,5.43
2022-12-06T11:18:20.484Z,6.90
2022-12-06T11:21:00.576Z,5.32
2022-12-06T11:23:49.104Z,5.60
2022-12-06T11:26:56.744Z,5.72
2022-12-06T11:29:23.613Z,10.82
2022-12-06T11:31:56.245Z,8.80
2022-12-06T11:34:29.297Z,6.35
2022-12-06T11:37:00.401Z,11.40
2022-12-06T11:39:28.896Z,41.78
2022-12-06T11:41:58.985Z,8.48
2022-12-06T11:44:28.609Z,9.57
2022-12-06T11:47:00.400Z,7.70
2022-12-06T11:49:32.620Z,8.10
2022-12-06T11:52:04.792Z,6.93
2022-12-06T11:54:38.693Z,6.90
2022-12-06T11:57:22.145Z,7.78
2022-12-06T12:00:10.529Z,7.40
2022-12-06T12:02:37.429Z,8.10
2022-12-06T12:05:20.268Z,6.65
2022-12-06T12:07:55.934Z,8.10
2022-12-06T12:10:27.375Z,6.88
2022-12-06T12:13:13.746Z,7.05
2022-12-06T12:15:50.584Z,7.13
2022-12-06T12:18:25.450Z,7.00
2022-12-06T12:20:55.292Z,6.50
2022-12-06T12:23:33.493Z,9.88
2022-12-06T12:26:10.836Z,6.53
2022-12-06T12:28:38.657Z,6.63
2022-12-06T12:31:21.208Z,6.25
2022-12-06T12:33:48.771Z,7.03
2022-12-06T12:36:17.598Z,7.28
2022-12-06T12:38:47.179Z,6.50
2022-12-06T12:41:43.323Z,5.95
2022-12-06T12:44:37.462Z,8.98
2022-12-06T12:47:20.428Z,7.70
2022-12-06T12:50:02.402Z,6.45
2022-12-06T12:52:36.020Z,11.23
2022-12-06T12:55:15.467Z,4.97
2022-12-06T12:57:45.032Z,4.80
2022-12-06T13:00:22.219Z,5.15
2022-12-06T13:02:57.316Z,4.53
2022-12-06T13:05:33.686Z,6.13
2022-12-06T13:08:21.594Z,5.40
2022-12-06T13:10:57.057Z,6.68
2022-12-06T13:13:37.382Z,5.43
2022-12-06T13:16:11.919Z,6.93
2022-12-06T13:18:46.048Z,5.00
2022-12-06T13:21:35.786Z,7.00
2022-12-06T13:24:11.334Z,4.78
2022-12-06T13:27:16.576Z,7.47
2022-12-06T13:29:57.391Z,5.78
2022-12-06T13:32:38.812Z,4.72
2022-12-06T13:35:21.943Z,6.80
2022-12-06T13:37:54.471Z,7.63
2022-12-06T13:40:33.343Z,6.90
2022-12-06T13:43:01.751Z,5.65
2022-12-06T13:45:37.283Z,7.40
2022-12-06T13:48:04.048Z,6.72
2022-12-06T13:50:33.254Z,12.63
2022-12-06T13:53:02.184Z,7.40
2022-12-06T13:55:28.674Z,8.00
2022-12-06T13:57:55.157Z,6.97
2022-12-06T14:00:30.758Z,8.40
2022-12-06T14:03:21.637Z,7.30
2022-12-06T14:06:01.008Z,7.28
2022-12-06T14:08:30.116Z,6.40
2022-12-06T14:11:21.914Z,7.22
2022-12-06T14:13:58.457Z,5.95
2022-12-06T14:16:37.183Z,6.72
2022-12-06T14:19:15.992Z,7.95
2022-12-06T14:22:10.252Z,6.55
2022-12-06T14:24:40.027Z,9.73
2022-12-06T14:27:18.717Z,8.93
2022-12-06T14:30:01.024Z,11.80
2022-12-06T14:32:36.495Z,13.25
2022-12-06T14:35:30.899Z,14.60
2022-12-06T14:38:01.553Z,9.35
2022-12-06T14:43:19.146Z,8.45
2022-12-06T14:45:46.797Z,7.03
2022-12-06T14:48:13.672Z,8.27
2022-12-06T14:50:44.734Z,8.40
2022-12-06T14:53:17.008Z,8.63
2022-12-06T14:56:26.385Z,7.15
2022-12-06T14:58:53.005Z,8.30
2022-12-06T15:01:24.191Z,7.78
2022-12-06T15:03:57.816Z,10.95
2022-12-06T15:06:25.706Z,12.35
2022-12-06T15:08:58.521Z,14.05
2022-12-06T15:11:59.567Z,10.63
2022-12-06T15:14:47.574Z,9.88
2022-12-06T15:17:14.052Z,9.65
2022-12-06T15:19:44.842Z,8.82
2022-12-06T15:22:24.336Z,8.95
2022-12-06T15:24:54.657Z,9.30
2022-12-06T15:27:23.194Z,10.88
2022-12-06T15:29:50.440Z,10.48
2022-12-06T15:32:18.701Z,11.93
2022-12-06T15:34:45.676Z,12.02
2022-12-06T15:40:02.151Z,11.15
2022-12-06T15:42:28.907Z,11.20
2022-12-06T15:44:55.483Z,11.88
2022-12-06T15:47:22.031Z,12.45
2022-12-06T15:49:51.769Z,11.57
2022-12-06T15:52:23.477Z,10.90
2022-12-06T15:54:50.299Z,10.80
2022-12-06T15:57:16.843Z,12.60
2022-12-06T15:59:43.339Z,11.27
2022-12-06T16:02:18.128Z,13.05
2022-12-06T16:04:48.001Z,12.85
2022-12-06T16:07:18.887Z,12.43
2022-12-06T16:09:46.041Z,13.15
2022-12-06T16:12:12.659Z,15.35
2022-12-06T16:14:39.284Z,12.43
2022-12-06T16:17:05.880Z,12.80
2022-12-06T16:19:51.388Z,12.55
2022-12-06T16:22:17.981Z,13.38
2022-12-06T16:24:46.278Z,12.63
2022-12-06T16:27:16.196Z,16.85
2022-12-06T16:29:42.779Z,13.07
2022-12-06T16:32:09.291Z,13.48
2022-12-06T16:34:35.834Z,12.48
2022-12-06T16:37:09.049Z,10.98
2022-12-06T16:39:35.718Z,12.70
2022-12-06T16:42:04.399Z,14.30
2022-12-06T16:44:31.286Z,11.90
2022-12-06T16:46:58.293Z,13.05
2022-12-06T16:52:14.464Z,11.77
2022-12-06T16:54:42.042Z,12.70
2022-12-06T16:57:10.979Z,11.90
2022-12-06T16:59:37.620Z,10.70
2022-12-06T17:02:09.991Z,13.05
2022-12-06T17:04:39.529Z,10.63
2022-12-06T17:07:06.039Z,12.40
2022-12-06T17:09:32.626Z,10.82
2022-12-06T17:12:07.081Z,9.75
2022-12-06T17:14:36.000Z,12.38
2022-12-06T17:17:04.209Z,13.02
2022-12-06T17:19:31.698Z,13.15
2022-12-06T17:21:58.784Z,15.10
2022-12-06T17:24:26.941Z,11.98
2022-12-06T17:26:54.225Z,14.75
2022-12-06T17:29:21.002Z,12.25
2022-12-06T17:31:47.573Z,12.05
2022-12-06T17:34:14.941Z,13.43
2022-12-06T17:36:42.527Z,12.77
2022-12-06T17:39:10.965Z,13.40
2022-12-06T17:41:55.957Z,13.27
2022-12-06T17:44:22.485Z,14.95
2022-12-06T17:46:49.086Z,15.85
2022-12-06T17:49:18.865Z,15.73
2022-12-06T17:51:45.763Z,14.37
2022-12-06T17:54:12.907Z,15.18
2022-12-06T17:56:46.887Z,16.23
2022-12-06T17:59:19.246Z,14.10
2022-12-06T18:04:33.010Z,15.25
2022-12-06T18:06:59.769Z,15.80
2022-12-06T18:09:26.513Z,15.10
2022-12-06T18:11:55.693Z,14.82
2022-12-06T18:14:22.328Z,14.70
2022-12-06T18:16:48.955Z,14.10
2022-12-06T18:19:18.450Z,15.90
2022-12-06T18:21:45.970Z,14.63
2022-12-06T18:24:25.840Z,13.80
2022-12-06T18:26:55.689Z,15.38
2022-12-06T18:29:23.655Z,13.93
2022-12-06T18:31:51.437Z,15.02
2022-12-06T18:34:19.567Z,15.15
2022-12-06T18:36:46.371Z,13.40
2022-12-06T18:39:16.001Z,15.80
2022-12-06T18:41:46.387Z,13.02
2022-12-06T18:44:13.350Z,16.15
2022-12-06T18:46:42.214Z,14.40
2022-12-06T18:49:11.023Z,14.63
2022-12-06T18:51:38.870Z,12.98
2022-12-06T18:54:06.621Z,13.63
2022-12-06T18:56:34.466Z,14.43
2022-12-06T18:59:03.188Z,14.95
2022-12-06T19:01:32.916Z,13.52
2022-12-06T19:04:01.241Z,15.57
2022-12-06T19:06:31.864Z,16.17
2022-12-06T19:09:01.736Z,13.88
2022-12-06T19:11:28.531Z,16.33
2022-12-06T19:13:57.233Z,15.20
2022-12-06T19:16:29.461Z,15.00
2022-12-06T19:19:00.056Z,15.77
2022-12-06T19:21:27.456Z,18.60
2022-12-06T19:23:56.348Z,18.52
2022-12-06T19:26:24.263Z,19.80
2022-12-06T19:28:50.848Z,17.00
2022-12-06T19:31:18.056Z,18.88
2022-12-06T19:33:48.734Z,17.08
2022-12-06T19:38:43.968Z,18.48
2022-12-06T19:41:13.965Z,18.65
2022-12-06T19:43:59.415Z,19.48
2022-12-06T19:46:28.417Z,21.17
2022-12-06T19:49:00.439Z,20.15
2022-12-06T19:51:29.121Z,24.00
2022-12-06T19:53:58.876Z,20.65
2022-12-06T19:56:26.071Z,24.67
2022-12-06T19:58:55.666Z,23.33
2022-12-06T20:01:27.133Z,23.88
2022-12-06T20:03:56.965Z,25.23
2022-12-06T20:06:26.375Z,23.30
2022-12-06T20:08:54.508Z,22.25
2022-12-06T20:11:41.822Z,25.88
2022-12-06T20:14:11.356Z,27.35
2022-12-06T20:16:38.116Z,23.17
2022-12-06T20:19:06.910Z,26.67
2022-12-06T20:21:34.675Z,25.83
2022-12-06T20:24:01.731Z,27.30
2022-12-06T20:26:29.592Z,26.55
2022-12-06T20:28:56.135Z,26.52
2022-12-06T20:31:25.972Z,27.42
2022-12-06T20:33:55.836Z,25.98
2022-12-06T20:36:26.422Z,26.45
2022-12-06T20:38:54.442Z,29.23
2022-12-06T20:41:23.617Z,29.95
2022-12-06T20:43:51.530Z,27.85
2022-12-06T20:46:24.982Z,29.48
2022-12-06T20:48:53.244Z,26.42
2022-12-06T20:51:21.956Z,27.02
2022-12-06T20:53:49.922Z,25.63
2022-12-06T20:56:20.224Z,25.60
2022-12-06T20:58:49.609Z,27.23
2022-12-06T21:01:21.299Z,27.73
2022-12-06T21:03:48.943Z,30.48
2022-12-06T21:06:16.028Z,27.85
2022-12-06T21:08:42.924Z,28.55
2022-12-06T21:11:25.725Z,30.02
2022-12-06T21:13:57.680Z,27.45
2022-12-06T21:16:30.135Z,24.42
2022-12-06T21:19:02.017Z,23.95
2022-12-06T21:21:32.820Z,23.45
2022-12-06T21:26:27.060Z,23.63
2022-12-06T21:28:54.635Z,25.23
2022-12-06T21:31:26.699Z,26.88
2022-12-06T21:33:53.743Z,24.15
2022-12-06T21:36:20.588Z,29.00
2022-12-06T21:38:47.222Z,24.25
2022-12-06T21:41:14.227Z,25.75
2022-12-06T21:43:40.981Z,23.80
2022-12-06T21:46:12.404Z,25.08
2022-12-06T21:48:39.504Z,22.63
2022-12-06T21:51:08.891Z,24.60
2022-12-06T21:53:36.670Z,25.17
2022-12-06T21:56:07.721Z,24.30
2022-12-06T21:58:35.710Z,24.80
2022-12-06T22:01:07.758Z,26.25
2022-12-06T22:03:35.197Z,25.30
2022-12-06T22:06:12.427Z,23.65
2022-12-06T22:08:43.118Z,23.92
2022-12-06T22:13:37.331Z,22.58
2022-12-06T22:16:09.312Z,22.15
2022-12-06T22:18:44.080Z,22.40
2022-12-06T22:21:17.627Z,24.27
2022-12-06T22:23:44.976Z,22.58
2022-12-06T22:26:15.446Z,24.08
2022-12-06T22:28:42.113Z,22.75
2022-12-06T22:31:20.458Z,22.70
2022-12-06T22:33:48.076Z,24.02
2022-12-06T22:36:15.805Z,22.42
2022-12-06T22:38:53.603Z,23.55
2022-12-06T22:41:21.214Z,23.80
2022-12-06T22:43:58.868Z,24.23
2022-12-06T22:46:26.993Z,23.58
2022-12-06T22:48:54.838Z,22.90
2022-12-06T22:51:21.276Z,24.83
2022-12-06T22:53:52.672Z,25.08
2022-12-06T22:56:19.525Z,23.30
2022-12-06T22:58:46.052Z,25.33
2022-12-06T23:01:17.605Z,29.50
2022-12-06T23:03:46.148Z,29.13
2022-12-06T23:06:13.951Z,23.90
2022-12-06T23:08:40.863Z,22.17
2022-12-06T23:11:10.227Z,25.50
2022-12-06T23:13:36.744Z,22.70
2022-12-06T23:16:06.477Z,23.77
2022-12-06T23:18:34.163Z,25.30
2022-12-06T23:21:05.539Z,24.52
2022-12-06T23:23:32.254Z,23.77
2022-12-06T23:26:08.051Z,24.10
2022-12-06T23:28:35.105Z,21.90
2022-12-06T23:31:06.367Z,22.75
2022-12-06T23:33:33.321Z,22.58
2022-12-06T23:36:04.410Z,21.08
2022-12-06T23:38:31.180Z,22.00
2022-12-06T23:41:02.804Z,23.73
2022-12-06T23:43:29.345Z,22.48
2022-12-06T23:45:59.150Z,24.13
2022-12-06T23:48:27.757Z,23.92
2022-12-06T23:51:04.570Z,26.92
2022-12-06T23:53:32.081Z,26.20
2022-12-06T23:56:05.528Z,25.95
2022-12-06T23:58:32.047Z,25.60
